createdAt,value
2022-11-24T00:02:23.220Z,100359.06
2022-11-24T00:04:47.038Z,100354.88
2022-11-24T00:07:10.684Z,100351.19
2022-11-24T00:09:34.332Z,100347.00
2022-11-24T00:11:57.950Z,100350.00
2022-11-24T00:14:21.580Z,100348.28
2022-11-24T00:16:46.529Z,100337.84
2022-11-24T00:19:15.761Z,100350.09
2022-11-24T00:21:42.038Z,100348.81
2022-11-24T00:24:06.427Z,100354.72
2022-11-24T00:26:32.130Z,100355.75
2022-11-24T00:29:02.230Z,100355.59
2022-11-24T00:31:28.135Z,100353.09
2022-11-24T00:33:54.771Z,100349.81
2022-11-24T00:36:20.046Z,100356.19
2022-11-24T00:38:43.805Z,100348.72
2022-11-24T00:41:07.738Z,100344.03
2022-11-24T00:43:31.299Z,100343.75
2022-11-24T00:45:55.083Z,100349.00
2022-11-24T00:48:18.750Z,100344.09
2022-11-24T00:50:43.807Z,100345.38
2022-11-24T00:53:07.438Z,100345.41
2022-11-24T00:55:31.123Z,100352.41
2022-11-24T00:57:54.680Z,100350.16
2022-11-24T01:00:19.726Z,100343.50
2022-11-24T01:02:43.315Z,100350.63
2022-11-24T01:05:07.873Z,100340.59
2022-11-24T01:07:32.856Z,100341.03
2022-11-24T01:09:56.633Z,100360.88
2022-11-24T01:12:20.158Z,100362.91
2022-11-24T01:14:43.878Z,100354.44
2022-11-24T01:17:07.422Z,100356.81
2022-11-24T01:19:31.009Z,100357.59
2022-11-24T01:21:54.656Z,100360.31
2022-11-24T01:24:19.975Z,100362.28
2022-11-24T01:26:43.670Z,100368.69
2022-11-24T01:29:07.426Z,100374.84
2022-11-24T01:31:30.966Z,100362.47
2022-11-24T01:33:55.273Z,100358.22
2022-11-24T01:36:19.069Z,100355.41
2022-11-24T01:38:42.801Z,100346.63
2022-11-24T01:41:11.334Z,100354.31
2022-11-24T01:43:35.595Z,100351.72
2022-11-24T01:46:03.838Z,100359.16
2022-11-24T01:48:32.542Z,100361.34
2022-11-24T01:51:03.615Z,100362.44
2022-11-24T01:53:27.554Z,100365.88
2022-11-24T01:55:53.038Z,100374.63
2022-11-24T01:58:23.574Z,100382.69
2022-11-24T02:00:48.026Z,100383.03
2022-11-24T02:03:13.255Z,100382.00
2022-11-24T02:05:45.036Z,100383.22
2022-11-24T02:08:17.990Z,100383.78
2022-11-24T02:10:41.580Z,100399.66
2022-11-24T02:13:06.031Z,100392.97
2022-11-24T02:15:31.452Z,100392.38
2022-11-24T02:17:55.102Z,100395.00
2022-11-24T02:20:19.590Z,100391.41
2022-11-24T02:22:54.242Z,100397.06
2022-11-24T02:25:31.336Z,100394.44
2022-11-24T02:27:58.430Z,100383.53
2022-11-24T02:30:22.307Z,100390.72
2022-11-24T02:32:46.031Z,100393.97
2022-11-24T02:35:11.918Z,100388.41
2022-11-24T02:37:35.542Z,100388.34
2022-11-24T02:39:59.073Z,100399.09
2022-11-24T02:42:23.199Z,100398.97
2022-11-24T02:44:54.402Z,100395.34
2022-11-24T02:47:18.377Z,100403.47
2022-11-24T02:49:41.980Z,100397.25
2022-11-24T02:52:06.310Z,100404.75
2022-11-24T02:54:30.050Z,100401.06
2022-11-24T02:56:54.195Z,100398.00
2022-11-24T02:59:17.759Z,100392.78
2022-11-24T03:01:42.764Z,100390.44
2022-11-24T03:04:06.523Z,100393.31
2022-11-24T03:06:30.185Z,100395.44
2022-11-24T03:08:53.736Z,100398.00
2022-11-24T03:11:17.348Z,100397.72
2022-11-24T03:13:40.926Z,100398.41
2022-11-24T03:16:04.628Z,100400.84
2022-11-24T03:18:29.611Z,100402.38
2022-11-24T03:20:53.206Z,100397.22
2022-11-24T03:23:16.772Z,100399.50
2022-11-24T03:25:40.567Z,100407.25
2022-11-24T03:28:04.278Z,100413.13
2022-11-24T03:30:28.231Z,100424.59
2022-11-24T03:32:53.547Z,100417.00
2022-11-24T03:35:18.670Z,100427.53
2022-11-24T03:37:42.330Z,100421.56
2022-11-24T03:40:07.454Z,100424.47
2022-11-24T03:42:31.026Z,100416.59
2022-11-24T03:44:54.622Z,100419.91
2022-11-24T03:47:18.222Z,100418.03
2022-11-24T03:49:42.388Z,100421.91
2022-11-24T03:52:08.358Z,100428.59
2022-11-24T03:54:32.341Z,100431.88
2022-11-24T03:56:56.157Z,100426.16
2022-11-24T03:59:19.750Z,100429.94
2022-11-24T04:01:43.382Z,100448.03
2022-11-24T04:04:07.276Z,100448.19
2022-11-24T04:06:30.857Z,100446.75
2022-11-24T04:08:55.834Z,100453.13
2022-11-24T04:11:33.218Z,100454.94
2022-11-24T04:13:56.814Z,100453.22
2022-11-24T04:16:20.389Z,100446.47
2022-11-24T04:18:44.100Z,100449.63
2022-11-24T04:21:07.764Z,100447.75
2022-11-24T04:23:31.352Z,100439.03
2022-11-24T04:25:56.243Z,100440.19
2022-11-24T04:28:19.870Z,100442.88
2022-11-24T04:30:45.064Z,100434.22
2022-11-24T04:33:08.924Z,100434.06
2022-11-24T04:35:32.499Z,100436.63
2022-11-24T04:37:56.139Z,100438.59
2022-11-24T04:40:20.443Z,100453.22
2022-11-24T04:42:45.463Z,100468.63
2022-11-24T04:45:10.057Z,100464.19
2022-11-24T04:47:34.159Z,100467.34
2022-11-24T04:49:57.748Z,100469.69
2022-11-24T04:52:23.843Z,100480.97
2022-11-24T04:54:47.635Z,100473.19
2022-11-24T04:57:17.523Z,100488.56
2022-11-24T04:59:42.495Z,100485.56
2022-11-24T05:02:06.136Z,100496.38
2022-11-24T05:04:29.992Z,100491.81
2022-11-24T05:06:53.659Z,100498.88
2022-11-24T05:09:18.742Z,100510.47
2022-11-24T05:11:41.292Z,100503.38
2022-11-24T05:14:04.866Z,100505.41
2022-11-24T05:16:29.881Z,100500.66
2022-11-24T05:18:53.445Z,100506.53
2022-11-24T05:21:17.088Z,100505.28
2022-11-24T05:23:40.642Z,100512.16
2022-11-24T05:26:05.129Z,100508.00
2022-11-24T05:28:29.132Z,100508.97
2022-11-24T05:30:52.670Z,100512.41
2022-11-24T05:33:19.264Z,100521.06
2022-11-24T05:35:42.929Z,100517.56
2022-11-24T05:38:06.599Z,100522.28
2022-11-24T05:40:30.361Z,100522.75
2022-11-24T05:42:53.888Z,100532.78
2022-11-24T05:45:20.447Z,100523.78
2022-11-24T05:47:44.361Z,100526.63
2022-11-24T05:50:11.454Z,100532.19
2022-11-24T05:52:35.188Z,100528.94
2022-11-24T05:54:58.763Z,100535.84
2022-11-24T05:57:22.297Z,100537.75
2022-11-24T05:59:46.198Z,100530.28
2022-11-24T06:02:10.321Z,100532.41
2022-11-24T06:04:34.379Z,100530.88
2022-11-24T06:06:59.546Z,100534.81
2022-11-24T06:09:23.115Z,100532.53
2022-11-24T06:11:48.291Z,100545.53
2022-11-24T06:14:12.059Z,100550.34
2022-11-24T06:16:35.703Z,100552.91
2022-11-24T06:18:59.379Z,100556.16
2022-11-24T06:21:22.910Z,100562.75
2022-11-24T06:23:49.329Z,100569.81
2022-11-24T06:26:12.902Z,100569.88
2022-11-24T06:28:36.819Z,100570.97
2022-11-24T06:31:03.781Z,100567.69
2022-11-24T06:33:28.584Z,100575.53
2022-11-24T06:35:52.150Z,100576.97
2022-11-24T06:38:20.118Z,100581.09
2022-11-24T06:40:49.093Z,100585.03
2022-11-24T06:43:12.587Z,100585.94
2022-11-24T06:45:36.261Z,100586.97
2022-11-24T06:47:59.804Z,100593.16
2022-11-24T06:50:23.648Z,100587.81
2022-11-24T06:52:47.210Z,100591.03
2022-11-24T06:55:11.131Z,100587.91
2022-11-24T06:57:36.267Z,100590.00
2022-11-24T07:00:00.074Z,100590.31
2022-11-24T07:02:23.620Z,100599.31
2022-11-24T07:04:47.211Z,100602.19
2022-11-24T07:07:10.843Z,100594.69
2022-11-24T07:09:34.488Z,100599.84
2022-11-24T07:11:58.016Z,100594.09
2022-11-24T07:14:23.250Z,100597.94
2022-11-24T07:16:46.817Z,100602.94
2022-11-24T07:19:11.439Z,100603.78
2022-11-24T07:21:34.986Z,100606.28
2022-11-24T07:23:59.656Z,100618.44
2022-11-24T07:26:23.639Z,100614.56
2022-11-24T07:28:47.386Z,100618.38
2022-11-24T07:31:14.985Z,100616.63
2022-11-24T07:33:38.909Z,100621.59
2022-11-24T07:36:03.331Z,100622.66
2022-11-24T07:38:26.932Z,100629.09
2022-11-24T07:40:50.568Z,100630.00
2022-11-24T07:43:19.845Z,100632.56
2022-11-24T07:45:45.603Z,100636.06
2022-11-24T07:48:11.877Z,100637.97
2022-11-24T07:50:35.759Z,100640.78
2022-11-24T07:53:03.458Z,100634.69
2022-11-24T07:55:27.059Z,100639.34
2022-11-24T07:57:50.604Z,100649.97
2022-11-24T08:00:15.458Z,100645.47
2022-11-24T08:02:39.230Z,100641.13
2022-11-24T08:05:04.229Z,100646.50
2022-11-24T08:07:27.860Z,100642.59
2022-11-24T08:09:52.216Z,100651.47
2022-11-24T08:12:17.531Z,100658.44
2022-11-24T08:14:41.074Z,100647.00
2022-11-24T08:17:04.752Z,100648.47
2022-11-24T08:19:28.349Z,100656.78
2022-11-24T08:21:53.320Z,100651.94
2022-11-24T08:24:17.161Z,100644.88
2022-11-24T08:26:40.696Z,100656.44
2022-11-24T08:29:04.300Z,100649.91
2022-11-24T08:31:33.529Z,100653.00
2022-11-24T08:33:57.763Z,100662.09
2022-11-24T08:36:21.523Z,100657.47
2022-11-24T08:38:47.257Z,100654.56
2022-11-24T08:41:12.705Z,100652.84
2022-11-24T08:43:37.105Z,100651.47
2022-11-24T08:46:02.318Z,100647.44
2022-11-24T08:48:25.924Z,100656.00
2022-11-24T08:50:49.481Z,100647.22
2022-11-24T08:53:13.015Z,100650.03
2022-11-24T08:55:37.973Z,100646.00
2022-11-24T08:58:01.534Z,100658.84
2022-11-24T09:00:25.212Z,100661.41
2022-11-24T09:02:56.112Z,100664.34
2022-11-24T09:05:50.132Z,100681.75
2022-11-24T09:08:03.252Z,100682.50
2022-11-24T09:10:26.730Z,100684.53
2022-11-24T09:12:52.204Z,100690.91
2022-11-24T09:15:17.116Z,100691.44
2022-11-24T09:17:40.872Z,100689.03
2022-11-24T09:20:05.164Z,100690.16
2022-11-24T09:22:28.735Z,100678.63
2022-11-24T09:24:52.223Z,100684.63
2022-11-24T09:27:15.854Z,100680.47
2022-11-24T09:29:40.742Z,100684.69
2022-11-24T09:32:06.940Z,100690.16
2022-11-24T09:34:30.842Z,100696.53
2022-11-24T09:36:54.427Z,100693.56
2022-11-24T09:39:18.035Z,100699.50
2022-11-24T09:41:55.690Z,100705.00
2022-11-24T09:45:03.049Z,100708.47
2022-11-24T09:47:43.095Z,100709.22
2022-11-24T09:50:11.900Z,100707.53
2022-11-24T09:52:41.927Z,100710.34
2022-11-24T09:55:19.693Z,100711.19
2022-11-24T09:57:45.379Z,100700.91
2022-11-24T10:00:14.965Z,100708.06
2022-11-24T10:02:38.552Z,100699.66
2022-11-24T10:05:02.150Z,100701.56
2022-11-24T10:07:32.513Z,100708.97
2022-11-24T10:10:05.759Z,100707.88
2022-11-24T10:12:49.024Z,100705.78
2022-11-24T10:15:35.036Z,100709.56
2022-11-24T10:18:35.147Z,100706.38
2022-11-24T10:21:14.843Z,100718.19
2022-11-24T10:24:09.931Z,100721.44
2022-11-24T10:26:39.168Z,100730.00
2022-11-24T10:29:14.975Z,100728.66
2022-11-24T10:31:43.078Z,100720.25
2022-11-24T10:34:16.491Z,100718.78
2022-11-24T10:36:49.364Z,100723.63
2022-11-24T10:39:21.748Z,100724.75
2022-11-24T10:41:52.675Z,100730.56
2022-11-24T10:44:16.369Z,100730.31
2022-11-24T10:46:41.958Z,100728.66
2022-11-24T10:49:06.949Z,100720.44
2022-11-24T10:51:45.609Z,100711.50
2022-11-24T10:54:17.559Z,100726.94
2022-11-24T10:56:41.972Z,100726.72
2022-11-24T10:59:29.349Z,100729.25
2022-11-24T11:01:55.646Z,100726.22
2022-11-24T11:04:22.503Z,100727.69
2022-11-24T11:06:46.153Z,100722.84
2022-11-24T11:09:22.221Z,100721.47
2022-11-24T11:11:48.299Z,100724.59
2022-11-24T11:14:13.010Z,100728.22
2022-11-24T11:16:39.569Z,100731.56
2022-11-24T11:19:33.006Z,100732.16
2022-11-24T11:22:00.540Z,100725.44
2022-11-24T11:24:24.149Z,100737.03
2022-11-24T11:26:47.705Z,100726.88
2022-11-24T11:34:53.627Z,100714.94
2022-11-24T11:37:18.155Z,100718.97
2022-11-24T11:39:48.681Z,100708.38
2022-11-24T11:42:59.945Z,100706.59
2022-11-24T11:45:14.484Z,100701.59
2022-11-24T11:47:46.305Z,100705.09
2022-11-24T11:50:18.648Z,100710.56
2022-11-24T11:53:07.450Z,100708.22
2022-11-24T11:55:51.362Z,100722.31
2022-11-24T11:58:43.883Z,100725.41
2022-11-24T12:01:19.605Z,100729.09
2022-11-24T12:03:58.925Z,100726.63
2022-11-24T12:06:43.219Z,100734.53
2022-11-24T12:09:21.512Z,100733.53
2022-11-24T12:11:53.349Z,100731.44
2022-11-24T12:14:32.111Z,100732.34
2022-11-24T12:17:07.099Z,100739.56
2022-11-24T12:19:46.724Z,100742.84
2022-11-24T12:22:21.997Z,100742.19
2022-11-24T12:24:54.462Z,100729.72
2022-11-24T12:27:29.883Z,100727.69
2022-11-24T12:30:11.105Z,100735.81
2022-11-24T12:33:00.194Z,100734.53
2022-11-24T12:35:31.389Z,100735.25
2022-11-24T12:38:11.116Z,100733.66
2022-11-24T12:41:06.478Z,100737.41
2022-11-24T12:43:38.354Z,100732.25
2022-11-24T12:46:16.864Z,100739.34
2022-11-24T12:48:53.983Z,100737.22
2022-11-24T12:51:20.479Z,100740.41
2022-11-24T12:53:47.346Z,100749.94
2022-11-24T12:56:15.942Z,100747.25
2022-11-24T12:58:50.372Z,100749.09
2022-11-24T13:01:26.277Z,100755.25
2022-11-24T13:04:09.002Z,100747.56
2022-11-24T13:06:49.038Z,100745.22
2022-11-24T13:09:15.767Z,100752.94
2022-11-24T13:11:45.437Z,100748.88
2022-11-24T13:14:19.887Z,100756.63
2022-11-24T13:19:39.841Z,100745.31
2022-11-24T13:22:16.612Z,100751.75
2022-11-24T13:24:42.376Z,100754.75
2022-11-24T13:27:45.149Z,100751.31
2022-11-24T13:30:54.874Z,100763.06
2022-11-24T13:33:39.827Z,100767.47
2022-11-24T13:36:35.599Z,100767.25
2022-11-24T13:38:59.866Z,100768.53
2022-11-24T13:42:10.007Z,100773.56
2022-11-24T13:44:55.537Z,100785.13
2022-11-24T13:47:41.781Z,100804.59
2022-11-24T13:50:08.578Z,100803.84
2022-11-24T13:52:46.170Z,100799.25
2022-11-24T13:55:29.075Z,100802.88
2022-11-24T13:57:57.963Z,100802.22
2022-11-24T14:00:25.212Z,100803.31
2022-11-24T14:02:49.277Z,100803.09
2022-11-24T14:05:15.609Z,100806.06
2022-11-24T14:07:42.117Z,100801.16
2022-11-24T14:10:07.507Z,100804.16
2022-11-24T14:12:33.807Z,100816.66
2022-11-24T14:15:24.504Z,100820.00
2022-11-24T14:17:48.098Z,100821.81
2022-11-24T14:20:24.245Z,100833.81
2022-11-24T14:22:47.895Z,100832.41
2022-11-24T14:25:25.969Z,100833.13
2022-11-24T14:27:49.610Z,100832.28
2022-11-24T14:30:23.083Z,100844.19
2022-11-24T14:32:56.267Z,100841.09
2022-11-24T14:35:25.860Z,100841.84
2022-11-24T14:37:49.429Z,100848.69
2022-11-24T14:40:42.084Z,100844.28
2022-11-24T14:43:06.049Z,100842.47
2022-11-24T14:45:31.011Z,100841.19
2022-11-24T14:47:55.677Z,100846.19
2022-11-24T14:50:24.262Z,100850.25
2022-11-24T14:52:55.488Z,100842.25
2022-11-24T14:55:28.772Z,100846.13
2022-11-24T14:57:52.408Z,100856.50
2022-11-24T15:00:20.959Z,100855.84
2022-11-24T15:02:49.700Z,100858.22
2022-11-24T15:05:13.672Z,100856.81
2022-11-24T15:07:39.779Z,100858.53
2022-11-24T15:10:05.996Z,100864.94
2022-11-24T15:12:34.348Z,100873.94
2022-11-24T15:15:02.280Z,100870.19
2022-11-24T15:17:29.175Z,100868.69
2022-11-24T15:19:59.703Z,100866.44
2022-11-24T15:22:40.728Z,100874.59
2022-11-24T15:25:25.602Z,100880.03
2022-11-24T15:27:49.222Z,100886.75
2022-11-24T15:30:14.597Z,100884.72
2022-11-24T15:32:38.159Z,100886.75
2022-11-24T15:35:03.072Z,100893.16
2022-11-24T15:37:30.050Z,100892.47
2022-11-24T15:39:57.528Z,100891.22
2022-11-24T15:42:21.102Z,100902.56
2022-11-24T15:44:44.725Z,100906.81
2022-11-24T15:47:09.249Z,100907.69
2022-11-24T15:49:32.903Z,100909.75
2022-11-24T15:51:57.889Z,100916.91
2022-11-24T15:54:21.535Z,100914.94
2022-11-24T15:56:45.139Z,100910.84
2022-11-24T15:59:18.757Z,100916.78
2022-11-24T16:01:46.297Z,100910.44
2022-11-24T16:04:12.400Z,100909.97
2022-11-24T16:06:36.102Z,100904.47
2022-11-24T16:09:01.514Z,100911.50
2022-11-24T16:11:25.311Z,100911.09
2022-11-24T16:13:53.065Z,100911.50
2022-11-24T16:16:17.527Z,100921.78
2022-11-24T16:18:41.711Z,100919.41
2022-11-24T16:21:05.399Z,100922.84
2022-11-24T16:23:28.923Z,100922.63
2022-11-24T16:25:54.273Z,100923.63
2022-11-24T16:28:17.947Z,100921.06
2022-11-24T16:30:41.557Z,100933.66
2022-11-24T16:33:05.701Z,100934.19
2022-11-24T16:35:29.345Z,100939.59
2022-11-24T16:37:52.966Z,100926.16
2022-11-24T16:40:18.209Z,100937.50
2022-11-24T16:42:43.203Z,100938.66
2022-11-24T16:45:08.065Z,100931.91
2022-11-24T16:47:31.562Z,100930.19
2022-11-24T16:49:55.105Z,100931.25
2022-11-24T16:52:19.270Z,100940.31
2022-11-24T16:54:42.970Z,100934.81
2022-11-24T16:57:11.705Z,100935.22
2022-11-24T16:59:40.044Z,100942.06
2022-11-24T17:02:03.571Z,100950.00
2022-11-24T17:04:27.363Z,100946.66
2022-11-24T17:06:50.995Z,100953.13
2022-11-24T17:09:14.632Z,100952.28
2022-11-24T17:11:38.156Z,100961.03
2022-11-24T17:14:03.025Z,100952.56
2022-11-24T17:16:28.480Z,100955.41
2022-11-24T17:18:52.991Z,100959.41
2022-11-24T17:21:18.739Z,100955.22
2022-11-24T17:23:42.402Z,100945.50
2022-11-24T17:26:08.606Z,100949.66
2022-11-24T17:28:32.310Z,100948.16
2022-11-24T17:30:55.871Z,100950.47
2022-11-24T17:33:20.787Z,100958.28
2022-11-24T17:35:44.313Z,100962.38
2022-11-24T17:38:07.853Z,100963.91
2022-11-24T17:40:31.536Z,100969.91
2022-11-24T17:42:55.164Z,100956.09
2022-11-24T17:45:18.675Z,100968.19
2022-11-24T17:47:42.379Z,100965.72
2022-11-24T17:50:09.124Z,100973.88
2022-11-24T17:52:32.658Z,100969.88
2022-11-24T17:54:56.160Z,100967.16
2022-11-24T17:57:19.751Z,100969.16
2022-11-24T17:59:43.859Z,100973.88
2022-11-24T18:02:07.868Z,100973.72
2022-11-24T18:04:31.511Z,100979.31
2022-11-24T18:06:56.491Z,100972.38
2022-11-24T18:09:19.980Z,100979.81
2022-11-24T18:11:43.741Z,100986.38
2022-11-24T18:14:07.268Z,100984.94
2022-11-24T18:16:32.416Z,100982.50
2022-11-24T18:19:07.779Z,100987.22
2022-11-24T18:21:32.182Z,100982.28
2022-11-24T18:23:57.213Z,100990.78
2022-11-24T18:26:21.228Z,100991.63
2022-11-24T18:28:45.956Z,100992.66
2022-11-24T18:31:13.099Z,100991.81
2022-11-24T18:33:38.598Z,100996.13
2022-11-24T18:36:05.078Z,100994.47
2022-11-24T18:38:29.656Z,100994.75
2022-11-24T18:41:00.525Z,100994.09
2022-11-24T18:43:24.955Z,101004.19
2022-11-24T18:45:48.491Z,101003.03
2022-11-24T18:48:12.139Z,100998.25
2022-11-24T18:50:36.372Z,100998.63
2022-11-24T18:52:59.907Z,101004.72
2022-11-24T18:55:23.438Z,100993.56
2022-11-24T18:57:48.394Z,100997.13
2022-11-24T19:00:14.090Z,101000.00
2022-11-24T19:02:37.720Z,100989.66
2022-11-24T19:05:01.440Z,100993.31
2022-11-24T19:07:25.031Z,100998.31
2022-11-24T19:09:48.672Z,101009.50
2022-11-24T19:12:12.357Z,101000.53
2022-11-24T19:14:37.425Z,101001.34
2022-11-24T19:17:02.910Z,100999.38
2022-11-24T19:19:26.537Z,101006.28
2022-11-24T19:21:50.096Z,101009.69
2022-11-24T19:24:14.231Z,101010.97
2022-11-24T19:26:38.858Z,101012.78
2022-11-24T19:29:02.345Z,101004.47
2022-11-24T19:31:27.500Z,101005.31
2022-11-24T19:33:52.886Z,101011.06
2022-11-24T19:36:19.271Z,101014.22
2022-11-24T19:38:43.845Z,101012.50
2022-11-24T19:41:09.884Z,101017.97
2022-11-24T19:43:34.268Z,101018.50
2022-11-24T19:46:02.546Z,101021.31
2022-11-24T19:48:27.512Z,101017.88
2022-11-24T19:50:51.094Z,101014.50
2022-11-24T19:53:14.615Z,101026.19
2022-11-24T19:55:38.188Z,101026.34
2022-11-24T19:58:01.660Z,101030.97
2022-11-24T20:00:30.613Z,101042.97
2022-11-24T20:02:55.476Z,101039.94
2022-11-24T20:05:20.413Z,101050.34
2022-11-24T20:07:44.017Z,101049.97
2022-11-24T20:10:09.544Z,101051.75
2022-11-24T20:12:34.535Z,101051.19
2022-11-24T20:14:58.113Z,101062.94
2022-11-24T20:17:21.742Z,101066.28
2022-11-24T20:19:45.260Z,101066.59
2022-11-24T20:22:10.229Z,101072.06
2022-11-24T20:24:33.860Z,101069.94
2022-11-24T20:27:00.162Z,101086.88
2022-11-24T20:29:23.902Z,101079.88
2022-11-24T20:31:50.637Z,101080.94
2022-11-24T20:34:15.710Z,101082.03
2022-11-24T20:36:41.448Z,101081.34
2022-11-24T20:39:09.317Z,101084.22
2022-11-24T20:41:35.649Z,101089.81
2022-11-24T20:44:01.673Z,101084.34
2022-11-24T20:46:28.437Z,101087.94
2022-11-24T20:48:52.909Z,101086.66
2022-11-24T20:51:21.452Z,101090.38
2022-11-24T20:53:45.315Z,101087.94
2022-11-24T20:56:13.079Z,101089.84
2022-11-24T20:58:38.242Z,101091.91
2022-11-24T21:01:06.230Z,101086.72
2022-11-24T21:03:29.893Z,101083.44
2022-11-24T21:05:56.692Z,101086.00
2022-11-24T21:08:20.204Z,101086.59
2022-11-24T21:10:43.757Z,101077.63
2022-11-24T21:13:08.695Z,101087.53
2022-11-24T21:15:32.241Z,101080.47
2022-11-24T21:17:55.741Z,101090.47
2022-11-24T21:20:19.369Z,101085.03
2022-11-24T21:22:42.844Z,101082.88
2022-11-24T21:25:07.345Z,101088.38
2022-11-24T21:27:30.875Z,101096.53
2022-11-24T21:29:55.865Z,101093.22
2022-11-24T21:32:19.430Z,101094.94
2022-11-24T21:34:43.034Z,101095.09
2022-11-24T21:37:07.111Z,101095.88
2022-11-24T21:39:30.754Z,101098.50
2022-11-24T21:41:54.293Z,101095.28
2022-11-24T21:44:18.015Z,101096.53
2022-11-24T21:46:48.074Z,101098.53
2022-11-24T21:49:14.704Z,101101.34
2022-11-24T21:51:38.276Z,101105.06
2022-11-24T21:54:01.865Z,101109.50
2022-11-24T21:56:25.921Z,101119.25
2022-11-24T21:58:51.929Z,101116.78
2022-11-24T22:01:16.746Z,101118.66
2022-11-24T22:03:41.793Z,101122.22
2022-11-24T22:06:05.661Z,101120.59
2022-11-24T22:08:31.122Z,101120.31
2022-11-24T22:10:55.751Z,101115.94
2022-11-24T22:13:19.533Z,101127.28
2022-11-24T22:15:43.227Z,101123.50
2022-11-24T22:18:06.978Z,101131.66
2022-11-24T22:20:32.075Z,101135.88
2022-11-24T22:22:55.659Z,101131.03
2022-11-24T22:25:19.159Z,101131.09
2022-11-24T22:27:42.937Z,101135.03
2022-11-24T22:30:08.402Z,101137.56
2022-11-24T22:32:31.954Z,101133.31
2022-11-24T22:34:55.474Z,101136.00
2022-11-24T22:37:20.486Z,101139.25
2022-11-24T22:39:44.049Z,101138.31
2022-11-24T22:42:07.667Z,101146.09
2022-11-24T22:44:31.203Z,101144.69
2022-11-24T22:46:54.743Z,101143.59
2022-11-24T22:49:18.259Z,101136.47
2022-11-24T22:51:41.822Z,101139.06
2022-11-24T22:54:07.383Z,101139.63
2022-11-24T22:56:32.421Z,101142.09
2022-11-24T22:58:56.144Z,101142.59
2022-11-24T23:01:22.298Z,101145.84
2022-11-24T23:03:46.434Z,101143.91
2022-11-24T23:06:13.776Z,101145.47
2022-11-24T23:08:37.909Z,101144.41
2022-11-24T23:11:05.309Z,101148.91
2022-11-24T23:13:29.109Z,101137.78
2022-11-24T23:15:52.750Z,101144.22
2022-11-24T23:18:16.239Z,101149.53
2022-11-24T23:20:39.843Z,101146.56
2022-11-24T23:23:03.339Z,101144.50
2022-11-24T23:25:26.985Z,101141.22
2022-11-24T23:27:51.940Z,101143.06
2022-11-24T23:30:15.870Z,101143.47
2022-11-24T23:32:40.168Z,101137.00
2022-11-24T23:35:03.731Z,101136.06
2022-11-24T23:37:45.704Z,101139.28
2022-11-24T23:40:11.380Z,101144.06
2022-11-24T23:42:34.914Z,101148.38
2022-11-24T23:44:59.892Z,101147.19
2022-11-24T23:47:23.628Z,101148.31
2022-11-24T23:49:47.185Z,101144.09
2022-11-24T23:52:10.728Z,101146.50
2022-11-24T23:54:34.571Z,101158.97
2022-11-24T23:56:58.239Z,101153.88
2022-11-24T23:59:22.848Z,101154.34
